Time;durP1;ratioP1;P1;durP2;ratioP2;P2;SDS_P1;SDS_P2;PMS_P1;PMS_P2;Temp;Humidity;BMP_temperature;BMP_pressure;BME280_temperature;BME280_humidity;BME280_pressure;Samples;Min_cycle;Max_cycle;Signal;HPM_P1;HPM_P2
2021/03/10 00:06:05;;;;;;;7.75;6.68;;;;;;;;;;4510106;28;20094;-58
2021/03/10 00:08:31;;;;;;;8.77;6.18;;;;;;;;;;4191902;34;20485;-60
2021/03/10 00:10:57;;;;;;;7.68;6.60;;;;;;;;;;4196584;34;20122;-60
2021/03/10 00:13:23;;;;;;;7.80;6.55;;;;;;;;;;4190810;34;20122;-60
2021/03/10 00:15:49;;;;;;;8.00;6.60;;;;;;;;;;4190484;34;20225;-60
2021/03/10 00:18:15;;;;;;;8.98;7.05;;;;;;;;;;4190626;34;20647;-60
2021/03/10 00:20:41;;;;;;;10.50;7.90;;;;;;;;;;4199992;34;20130;-60
2021/03/10 00:23:07;;;;;;;8.43;6.45;;;;;;;;;;4190529;34;20105;-60
2021/03/10 00:25:33;;;;;;;7.82;6.50;;;;;;;;;;4190546;34;20190;-60
2021/03/10 00:27:59;;;;;;;7.95;6.80;;;;;;;;;;4190736;34;20133;-60
2021/03/10 00:30:25;;;;;;;8.75;7.20;;;;;;;;;;4190348;34;20193;-60
2021/03/10 00:32:51;;;;;;;10.52;7.53;;;;;;;;;;4190706;34;20287;-60
2021/03/10 00:35:17;;;;;;;7.57;6.50;;;;;;;;;;4190285;34;20145;-60
2021/03/10 00:37:42;;;;;;;7.78;6.95;;;;;;;;;;4190333;34;20117;-60
2021/03/10 00:40:09;;;;;;;7.45;6.60;;;;;;;;;;4190186;34;20142;-60
2021/03/10 00:42:35;;;;;;;8.80;7.50;;;;;;;;;;4190610;34;20439;-59
2021/03/10 00:45:00;;;;;;;8.00;7.20;;;;;;;;;;4192224;34;20109;-60
2021/03/10 00:47:26;;;;;;;8.93;6.97;;;;;;;;;;4202692;34;20474;-60
2021/03/10 00:49:52;;;;;;;10.93;7.28;;;;;;;;;;4192286;34;20198;-61
2021/03/10 00:52:18;;;;;;;9.13;7.78;;;;;;;;;;4202421;34;20214;-60
2021/03/10 00:54:44;;;;;;;10.35;7.15;;;;;;;;;;4202401;34;20137;-60
2021/03/10 00:57:10;;;;;;;9.38;6.80;;;;;;;;;;4192466;34;20214;-59
2021/03/10 00:59:36;;;;;;;7.95;6.70;;;;;;;;;;4192171;34;20129;-59
2021/03/10 01:02:02;;;;;;;9.52;6.95;;;;;;;;;;4192562;34;20446;-60
2021/03/10 01:04:28;;;;;;;9.07;6.68;;;;;;;;;;4202339;34;20198;-61
2021/03/10 01:06:54;;;;;;;8.98;6.82;;;;;;;;;;4192181;34;20114;-60
2021/03/10 01:09:20;;;;;;;8.30;6.50;;;;;;;;;;4202606;34;20093;-60
2021/03/10 01:11:46;;;;;;;8.85;6.53;;;;;;;;;;4202323;34;20114;-60
2021/03/10 01:14:13;;;;;;;8.00;6.47;;;;;;;;;;4192102;34;20501;-59
2021/03/10 01:16:39;;;;;;;7.60;6.72;;;;;;;;;;4202230;34;20423;-59
2021/03/10 01:19:05;;;;;;;8.77;6.47;;;;;;;;;;4192062;34;20187;-59
2021/03/10 01:21:30;;;;;;;7.35;6.28;;;;;;;;;;4202176;34;20467;-60
2021/03/10 01:23:56;;;;;;;8.80;6.62;;;;;;;;;;4202248;34;20130;-62
2021/03/10 01:26:22;;;;;;;8.75;6.70;;;;;;;;;;4202275;34;20140;-62
2021/03/10 01:28:48;;;;;;;7.32;6.57;;;;;;;;;;4192052;34;20463;-61
2021/03/10 01:31:14;;;;;;;7.97;6.68;;;;;;;;;;4202406;34;20608;-61
2021/03/10 01:33:40;;;;;;;7.97;6.97;;;;;;;;;;4179327;34;20197;-62
2021/03/10 01:36:07;;;;;;;8.38;7.43;;;;;;;;;;4192182;34;20100;-61
2021/03/10 01:38:33;;;;;;;8.88;7.35;;;;;;;;;;4179453;34;20090;-64
2021/03/10 01:40:58;;;;;;;9.32;7.75;;;;;;;;;;4201845;34;20518;-64
2021/03/10 01:43:24;;;;;;;8.13;7.30;;;;;;;;;;4190521;34;20094;-63
2021/03/10 01:45:50;;;;;;;7.78;6.97;;;;;;;;;;4191806;34;20132;-64
2021/03/10 01:48:17;;;;;;;8.15;6.95;;;;;;;;;;4202119;34;20140;-64
2021/03/10 01:50:43;;;;;;;8.02;7.10;;;;;;;;;;4190395;34;20126;-62
2021/03/10 01:53:09;;;;;;;8.60;7.72;;;;;;;;;;4191956;34;20196;-62
2021/03/10 01:55:35;;;;;;;9.35;7.32;;;;;;;;;;4189991;34;20133;-62
2021/03/10 01:58:01;;;;;;;8.00;7.00;;;;;;;;;;4202182;34;20183;-61
2021/03/10 02:00:29;;;;;;;8.60;7.03;;;;;;;;;;4202026;34;20118;-65
2021/03/10 02:02:55;;;;;;;10.02;6.72;;;;;;;;;;4201950;34;20112;-64
2021/03/10 02:05:22;;;;;;;9.10;7.75;;;;;;;;;;4201488;34;20121;-64
2021/03/10 02:08:11;;;;;;;10.13;7.47;;;;;;;;;;4190393;34;20102;-62
2021/03/10 02:11:00;;;;;;;8.32;7.20;;;;;;;;;;4180531;34;20134;-62
2021/03/10 02:13:29;;;;;;;9.38;7.62;;;;;;;;;;4190199;34;20109;-62
2021/03/10 02:16:02;;;;;;;10.20;8.27;;;;;;;;;;4201716;34;20537;-59
2021/03/10 02:18:32;;;;;;;7.80;7.00;;;;;;;;;;4178869;34;20145;-60
2021/03/10 02:20:59;;;;;;;9.93;7.57;;;;;;;;;;4191840;34;20140;-60
2021/03/10 02:23:43;;;;;;;9.27;7.60;;;;;;;;;;4191827;34;20123;-62
2021/03/10 02:26:13;;;;;;;9.43;8.27;;;;;;;;;;4191862;34;20101;-59
2021/03/10 02:28:39;;;;;;;9.05;8.20;;;;;;;;;;4201730;34;20706;-59
2021/03/10 02:31:05;;;;;;;9.20;8.20;;;;;;;;;;4178878;34;20126;-61
2021/03/10 02:33:31;;;;;;;8.52;7.62;;;;;;;;;;4167846;34;20113;-60
2021/03/10 02:36:01;;;;;;;8.50;7.62;;;;;;;;;;4178754;34;20121;-61
2021/03/10 02:38:27;;;;;;;8.57;7.68;;;;;;;;;;4167873;34;20114;-61
2021/03/10 02:40:53;;;;;;;8.68;7.50;;;;;;;;;;4191282;34;20137;-64
2021/03/10 02:43:20;;;;;;;7.95;7.15;;;;;;;;;;4190305;34;20152;-63
2021/03/10 02:45:46;;;;;;;8.00;7.20;;;;;;;;;;4189825;34;20145;-64
2021/03/10 02:48:12;;;;;;;8.52;7.62;;;;;;;;;;4191476;34;20203;-57
2021/03/10 02:50:38;;;;;;;8.70;7.78;;;;;;;;;;4201345;34;20214;-58
2021/03/10 02:53:04;;;;;;;9.23;8.27;;;;;;;;;;4178680;34;20572;-62
2021/03/10 02:55:31;;;;;;;9.88;8.25;;;;;;;;;;4189998;34;20140;-61
2021/03/10 02:57:58;;;;;;;9.98;7.85;;;;;;;;;;4178496;34;20094;-59
2021/03/10 03:00:24;;;;;;;8.38;7.32;;;;;;;;;;4191367;34;20443;-60
2021/03/10 03:02:50;;;;;;;8.68;7.78;;;;;;;;;;4191307;34;20106;-61
2021/03/10 03:05:16;;;;;;;9.50;7.80;;;;;;;;;;4177791;34;20210;-56
2021/03/10 03:07:44;;;;;;;9.40;8.40;;;;;;;;;;4178250;34;20096;-57
2021/03/10 03:10:13;;;;;;;9.10;8.20;;;;;;;;;;4178314;34;20133;-56
2021/03/10 03:12:39;;;;;;;9.05;8.00;;;;;;;;;;4178544;34;20553;-59
2021/03/10 03:15:06;;;;;;;8.80;7.80;;;;;;;;;;4189643;34;20638;-59
2021/03/10 03:17:32;;;;;;;9.00;8.10;;;;;;;;;;4166873;34;20129;-59
2021/03/10 03:19:58;;;;;;;9.30;7.80;;;;;;;;;;4178207;34;20126;-60
2021/03/10 03:22:24;;;;;;;8.77;7.95;;;;;;;;;;4189570;34;20124;-61
2021/03/10 03:24:50;;;;;;;11.25;8.63;;;;;;;;;;4189581;34;20565;-59
2021/03/10 03:27:25;;;;;;;9.77;8.70;;;;;;;;;;4191070;34;20225;-59
2021/03/10 03:29:55;;;;;;;9.82;8.15;;;;;;;;;;4179065;34;20220;-58
2021/03/10 03:32:23;;;;;;;10.75;8.25;;;;;;;;;;4178544;34;20102;-58
2021/03/10 03:34:49;;;;;;;9.00;7.72;;;;;;;;;;4189561;34;20133;-58
2021/03/10 03:37:15;;;;;;;10.45;7.80;;;;;;;;;;4190950;34;20105;-57
2021/03/10 03:39:41;;;;;;;9.20;8.30;;;;;;;;;;4166610;34;20101;-57
2021/03/10 03:42:07;;;;;;;9.32;8.20;;;;;;;;;;4178287;34;20184;-58
2021/03/10 03:44:32;;;;;;;9.77;8.52;;;;;;;;;;4178002;34;20102;-58
2021/03/10 03:46:58;;;;;;;10.65;8.30;;;;;;;;;;4200972;34;20514;-59
2021/03/10 03:49:24;;;;;;;8.32;7.53;;;;;;;;;;4166693;34;20209;-58
2021/03/10 03:51:50;;;;;;;9.82;8.23;;;;;;;;;;4190752;34;20156;-62
2021/03/10 03:54:16;;;;;;;8.73;7.82;;;;;;;;;;4200783;34;20137;-59
2021/03/10 03:56:42;;;;;;;9.45;8.35;;;;;;;;;;4190641;34;20551;-58
2021/03/10 03:59:08;;;;;;;10.38;8.00;;;;;;;;;;4190859;34;20134;-71
2021/03/10 04:01:34;;;;;;;9.82;8.00;;;;;;;;;;4190739;34;20112;-58
2021/03/10 04:04:00;;;;;;;9.52;7.50;;;;;;;;;;4200593;34;20089;-58
2021/03/10 04:06:26;;;;;;;10.43;8.45;;;;;;;;;;4190443;34;20099;-59
2021/03/10 04:08:51;;;;;;;9.95;7.93;;;;;;;;;;4200852;34;20091;-59
2021/03/10 04:11:18;;;;;;;8.80;7.57;;;;;;;;;;4190559;34;20152;-59
2021/03/10 04:13:44;;;;;;;10.05;8.02;;;;;;;;;;4200869;34;20538;-61
2021/03/10 04:16:10;;;;;;;10.57;8.60;;;;;;;;;;4190398;34;20124;-58
2021/03/10 04:18:37;;;;;;;10.80;8.63;;;;;;;;;;4202133;34;20126;-59
2021/03/10 04:21:04;;;;;;;9.38;7.95;;;;;;;;;;4192474;34;20522;-59
2021/03/10 04:23:30;;;;;;;9.57;7.50;;;;;;;;;;4192532;34;20220;-60
2021/03/10 04:25:56;;;;;;;10.38;8.27;;;;;;;;;;4179862;34;20114;-58
2021/03/10 04:28:22;;;;;;;11.60;8.68;;;;;;;;;;4192583;34;20604;-59
2021/03/10 04:30:48;;;;;;;12.55;8.57;;;;;;;;;;4192545;34;20210;-59
2021/03/10 04:33:13;;;;;;;10.45;8.43;;;;;;;;;;4192796;34;20129;-58
2021/03/10 04:35:39;;;;;;;9.77;8.43;;;;;;;;;;4192422;34;20111;-59
2021/03/10 04:38:05;;;;;;;11.75;8.07;;;;;;;;;;4202828;34;20212;-59
2021/03/10 04:40:31;;;;;;;10.18;8.40;;;;;;;;;;4202675;34;20118;-60
2021/03/10 04:42:57;;;;;;;8.95;7.37;;;;;;;;;;4192495;34;20452;-59
2021/03/10 04:45:23;;;;;;;9.77;8.77;;;;;;;;;;4192526;34;20134;-59
2021/03/10 04:47:49;;;;;;;9.65;7.47;;;;;;;;;;4192431;34;20764;-59
2021/03/10 04:50:16;;;;;;;9.88;8.75;;;;;;;;;;4192278;34;20129;-60
2021/03/10 04:52:43;;;;;;;9.52;8.05;;;;;;;;;;4202428;34;20105;-58
2021/03/10 04:55:09;;;;;;;9.98;8.55;;;;;;;;;;4192386;34;20141;-62
2021/03/10 04:57:36;;;;;;;10.80;8.48;;;;;;;;;;4168100;34;20125;-61
2021/03/10 05:00:04;;;;;;;11.85;8.40;;;;;;;;;;4179620;34;20113;-64
2021/03/10 05:02:30;;;;;;;11.05;7.90;;;;;;;;;;4202236;34;20113;-59
2021/03/10 05:04:56;;;;;;;9.70;7.93;;;;;;;;;;4192026;34;20113;-59
2021/03/10 05:07:22;;;;;;;11.18;7.93;;;;;;;;;;4179391;34;20117;-59
2021/03/10 05:09:49;;;;;;;10.98;8.55;;;;;;;;;;4192166;34;20454;-59
2021/03/10 05:12:15;;;;;;;10.07;8.43;;;;;;;;;;4192054;34;20521;-59
2021/03/10 05:14:40;;;;;;;9.70;8.30;;;;;;;;;;4191905;34;20542;-65
2021/03/10 05:17:06;;;;;;;9.07;7.68;;;;;;;;;;4190684;34;20155;-65
2021/03/10 05:19:32;;;;;;;9.98;8.15;;;;;;;;;;4179115;34;20109;-65
2021/03/10 05:21:58;;;;;;;10.10;7.90;;;;;;;;;;4192038;34;20208;-64
2021/03/10 05:24:24;;;;;;;11.15;7.57;;;;;;;;;;4202041;34;20129;-65
2021/03/10 05:26:50;;;;;;;9.10;8.05;;;;;;;;;;4191949;34;20107;-63
2021/03/10 05:29:16;;;;;;;10.05;8.43;;;;;;;;;;4191435;34;20133;-62
2021/03/10 05:31:42;;;;;;;13.00;8.43;;;;;;;;;;4190668;34;20129;-63
2021/03/10 05:34:08;;;;;;;8.93;8.02;;;;;;;;;;4179230;34;20575;-62
2021/03/10 05:36:34;;;;;;;9.70;7.30;;;;;;;;;;4202017;34;20194;-67
2021/03/10 05:38:59;;;;;;;9.95;7.18;;;;;;;;;;4179102;34;20218;-64
2021/03/10 05:41:26;;;;;;;8.48;7.32;;;;;;;;;;4179332;34;20171;-64
2021/03/10 05:43:51;;;;;;;8.18;7.10;;;;;;;;;;4179122;34;20112;-64
2021/03/10 05:46:17;;;;;;;8.82;7.72;;;;;;;;;;4190544;34;20474;-63
2021/03/10 05:48:43;;;;;;;8.63;7.72;;;;;;;;;;4190318;34;20122;-62
2021/03/10 05:51:09;;;;;;;9.23;7.47;;;;;;;;;;4190256;34;20282;-62
2021/03/10 05:53:41;;;;;;;7.97;7.18;;;;;;;;;;4179047;34;20106;-61
2021/03/10 05:56:07;;;;;;;9.40;7.75;;;;;;;;;;4190897;34;20128;-61
2021/03/10 05:58:33;;;;;;;10.82;7.78;;;;;;;;;;4190426;34;20221;-62
2021/03/10 06:00:59;;;;;;;8.45;7.55;;;;;;;;;;4190465;34;20510;-62
2021/03/10 06:03:25;;;;;;;7.90;7.15;;;;;;;;;;4167662;34;20197;-62
2021/03/10 06:06:01;;;;;;;8.82;7.47;;;;;;;;;;4178803;34;20224;-62
2021/03/10 06:08:29;;;;;;;10.02;7.45;;;;;;;;;;4179208;34;20201;-61
2021/03/10 06:10:55;;;;;;;9.32;7.85;;;;;;;;;;4179145;34;20105;-62
2021/03/10 06:13:31;;;;;;;9.82;7.80;;;;;;;;;;4167719;34;20207;-62
2021/03/10 06:16:00;;;;;;;8.93;7.00;;;;;;;;;;4179068;34;20109;-62
2021/03/10 06:18:33;;;;;;;8.35;7.45;;;;;;;;;;4179100;34;20137;-62
2021/03/10 06:21:06;;;;;;;8.63;7.40;;;;;;;;;;4178773;34;20526;-62
2021/03/10 06:23:33;;;;;;;8.20;6.90;;;;;;;;;;4191795;34;20212;-62
2021/03/10 06:25:58;;;;;;;9.73;7.07;;;;;;;;;;4191347;34;20189;-61
2021/03/10 06:28:38;;;;;;;9.52;7.60;;;;;;;;;;4178778;34;20122;-61
2021/03/10 06:31:14;;;;;;;8.63;7.22;;;;;;;;;;4167594;34;20122;-61
2021/03/10 06:33:40;;;;;;;9.27;7.18;;;;;;;;;;4201542;34;20102;-61
2021/03/10 06:36:06;;;;;;;12.25;7.57;;;;;;;;;;4167579;34;20270;-60
2021/03/10 06:38:32;;;;;;;10.73;7.95;;;;;;;;;;4178684;34;20540;-61
2021/03/10 06:40:58;;;;;;;8.13;7.22;;;;;;;;;;4178432;34;20213;-61
2021/03/10 06:43:39;;;;;;;10.18;7.53;;;;;;;;;;4178702;34;20109;-61
2021/03/10 06:46:18;;;;;;;9.57;8.55;;;;;;;;;;4201770;34;20122;-61
2021/03/10 06:49:00;;;;;;;10.82;8.38;;;;;;;;;;4190301;34;20120;-62
2021/03/10 06:51:27;;;;;;;8.75;7.53;;;;;;;;;;4167586;34;20205;-62
2021/03/10 06:53:53;;;;;;;10.07;8.90;;;;;;;;;;4178684;34;20526;-60
2021/03/10 06:56:29;;;;;;;9.60;8.15;;;;;;;;;;4191271;34;20109;-61
2021/03/10 06:59:03;;;;;;;10.45;7.70;;;;;;;;;;4201511;34;20102;-61
2021/03/10 07:01:42;;;;;;;8.90;7.30;;;;;;;;;;4191141;34;20565;-61
2021/03/10 07:04:12;;;;;;;9.23;7.90;;;;;;;;;;4178723;34;20201;-60
2021/03/10 07:06:38;;;;;;;10.70;7.75;;;;;;;;;;4178418;34;20110;-60
2021/03/10 07:09:06;;;;;;;9.07;7.12;;;;;;;;;;4201254;34;20180;-61
2021/03/10 07:11:32;;;;;;;8.02;7.20;;;;;;;;;;4191289;34;20105;-61
2021/03/10 07:13:59;;;;;;;8.82;6.90;;;;;;;;;;4156077;34;20093;-60
2021/03/10 07:16:26;;;;;;;10.40;7.22;;;;;;;;;;4191174;34;20106;-60
2021/03/10 07:18:52;;;;;;;8.38;7.40;;;;;;;;;;4191103;34;20534;-61
2021/03/10 07:21:34;;;;;;;9.20;7.15;;;;;;;;;;4178690;34;20525;-60
2021/03/10 07:24:00;;;;;;;9.77;7.37;;;;;;;;;;4178577;34;20117;-60
2021/03/10 07:26:26;;;;;;;10.02;7.35;;;;;;;;;;4178526;34;20118;-62
2021/03/10 07:29:02;;;;;;;8.88;7.32;;;;;;;;;;4178568;34;20139;-62
2021/03/10 07:31:28;;;;;;;10.02;7.28;;;;;;;;;;4191022;34;20117;-62
2021/03/10 07:33:55;;;;;;;10.85;7.87;;;;;;;;;;4177938;34;20106;-61
2021/03/10 07:36:53;;;;;;;13.07;7.85;;;;;;;;;;4190984;34;20121;-62
2021/03/10 07:39:27;;;;;;;12.70;7.78;;;;;;;;;;4178121;34;20538;-63
2021/03/10 07:41:53;;;;;;;9.18;7.50;;;;;;;;;;4178049;34;20134;-63
2021/03/10 07:44:22;;;;;;;8.52;7.57;;;;;;;;;;4189565;34;20125;-64
2021/03/10 07:46:49;;;;;;;9.60;7.85;;;;;;;;;;4178187;34;20118;-65
2021/03/10 07:49:20;;;;;;;11.32;7.57;;;;;;;;;;4167259;34;20149;-66
2021/03/10 07:51:46;;;;;;;9.23;6.95;;;;;;;;;;4189326;34;20126;-69
2021/03/10 07:54:25;;;;;;;9.43;7.62;;;;;;;;;;4189383;34;20549;-66
2021/03/10 07:56:51;;;;;;;10.45;7.90;;;;;;;;;;4178605;34;20221;-68
2021/03/10 07:59:18;;;;;;;9.93;7.45;;;;;;;;;;4189485;34;20149;-64
2021/03/10 08:01:44;;;;;;;9.68;7.97;;;;;;;;;;4177991;34;20094;-64
2021/03/10 08:04:17;;;;;;;8.98;7.12;;;;;;;;;;4177833;34;20454;-67
2021/03/10 08:06:49;;;;;;;10.50;7.30;;;;;;;;;;4189321;34;20126;-65
2021/03/10 08:09:20;;;;;;;10.13;8.02;;;;;;;;;;4177862;34;20211;-67
2021/03/10 08:12:02;;;;;;;9.05;7.45;;;;;;;;;;4178149;34;20096;-68
2021/03/10 08:14:45;;;;;;;8.68;7.40;;;;;;;;;;4200653;34;20525;-67
2021/03/10 08:17:24;;;;;;;10.80;7.70;;;;;;;;;;4189112;34;20500;-68
2021/03/10 08:19:53;;;;;;;8.57;6.82;;;;;;;;;;4189242;34;20206;-66
2021/03/10 08:22:24;;;;;;;8.48;7.53;;;;;;;;;;4189182;34;20491;-64
2021/03/10 08:25:03;;;;;;;7.60;6.87;;;;;;;;;;4178343;34;20128;-68
2021/03/10 08:27:32;;;;;;;8.75;7.45;;;;;;;;;;4177598;34;20095;-64
2021/03/10 08:29:58;;;;;;;9.35;7.70;;;;;;;;;;4189071;34;20102;-69
2021/03/10 08:32:30;;;;;;;13.90;7.53;;;;;;;;;;4166440;34;20106;-67
2021/03/10 08:35:13;;;;;;;10.85;7.12;;;;;;;;;;4177754;34;20158;-64
2021/03/10 08:37:39;;;;;;;9.00;7.50;;;;;;;;;;4200421;34;20109;-63
2021/03/10 08:40:06;;;;;;;10.98;7.55;;;;;;;;;;4177549;34;20205;-65
2021/03/10 08:42:32;;;;;;;9.25;6.95;;;;;;;;;;4177746;34;20089;-65
2021/03/10 08:44:58;;;;;;;10.52;6.55;;;;;;;;;;4190226;34;20112;-65
2021/03/10 08:47:25;;;;;;;9.88;6.70;;;;;;;;;;4189045;34;20118;-68
2021/03/10 08:49:55;;;;;;;10.73;7.55;;;;;;;;;;4177414;34;20105;-69
2021/03/10 08:52:22;;;;;;;8.85;6.90;;;;;;;;;;4166384;34;20121;-67
2021/03/10 08:55:02;;;;;;;8.93;7.40;;;;;;;;;;4166041;34;20117;-62
2021/03/10 08:57:32;;;;;;;8.60;7.05;;;;;;;;;;4177540;34;20133;-68
2021/03/10 08:59:59;;;;;;;10.73;8.50;;;;;;;;;;4200147;34;20237;-68
2021/03/10 09:02:26;;;;;;;11.70;8.15;;;;;;;;;;4188926;34;20108;-69
2021/03/10 09:04:52;;;;;;;11.45;7.62;;;;;;;;;;4201169;34;20106;-60
2021/03/10 09:07:19;;;;;;;8.48;6.95;;;;;;;;;;4179338;34;20156;-65
2021/03/10 09:09:46;;;;;;;8.45;6.68;;;;;;;;;;4168298;34;20490;-64
2021/03/10 09:12:12;;;;;;;9.65;7.70;;;;;;;;;;4202287;34;20132;-64
2021/03/10 09:14:39;;;;;;;8.48;7.57;;;;;;;;;;4179376;34;20168;-64
2021/03/10 09:17:05;;;;;;;8.40;6.93;;;;;;;;;;4190763;34;20114;-65
2021/03/10 09:19:41;;;;;;;8.77;6.68;;;;;;;;;;4192008;34;20224;-65
2021/03/10 09:22:15;;;;;;;9.68;7.43;;;;;;;;;;4179468;34;20266;-70
2021/03/10 09:24:54;;;;;;;11.73;7.37;;;;;;;;;;4168171;34;20132;-65
2021/03/10 09:27:30;;;;;;;9.60;7.53;;;;;;;;;;4168390;34;20620;-65
2021/03/10 09:30:26;;;;;;;10.05;7.22;;;;;;;;;;4190849;34;20153;-66
2021/03/10 09:32:52;;;;;;;9.07;7.93;;;;;;;;;;4179030;34;20132;-66
2021/03/10 09:35:20;;;;;;;8.13;6.60;;;;;;;;;;4179151;34;20114;-65
2021/03/10 09:38:00;;;;;;;9.32;7.22;;;;;;;;;;4190888;34;20114;-65
2021/03/10 09:40:57;;;;;;;8.80;7.32;;;;;;;;;;4179480;34;20102;-65
2021/03/10 09:43:25;;;;;;;9.63;6.75;;;;;;;;;;4192169;34;20213;-67
2021/03/10 09:45:55;;;;;;;7.87;6.78;;;;;;;;;;4167986;34;20216;-66
2021/03/10 09:48:32;;;;;;;8.43;6.57;;;;;;;;;;4190500;34;20136;-66
2021/03/10 09:51:09;;;;;;;9.48;7.22;;;;;;;;;;4190461;34;20427;-64
2021/03/10 09:53:49;;;;;;;9.93;7.25;;;;;;;;;;4167764;34;20103;-64
2021/03/10 09:56:16;;;;;;;7.97;6.62;;;;;;;;;;4190574;34;20105;-65
2021/03/10 09:58:56;;;;;;;7.75;6.95;;;;;;;;;;4190164;34;20281;-66
2021/03/10 10:01:24;;;;;;;9.43;6.90;;;;;;;;;;4191784;34;20141;-65
2021/03/10 10:03:50;;;;;;;10.43;7.60;;;;;;;;;;4190235;34;20097;-65
2021/03/10 10:06:17;;;;;;;7.95;6.80;;;;;;;;;;4201567;34;20122;-65
2021/03/10 10:08:44;;;;;;;9.43;7.12;;;;;;;;;;4191693;34;20096;-64
2021/03/10 10:11:11;;;;;;;8.73;7.03;;;;;;;;;;4167859;34;20110;-63
2021/03/10 10:13:40;;;;;;;8.32;6.18;;;;;;;;;;4178961;34;20499;-64
2021/03/10 10:16:06;;;;;;;9.20;6.82;;;;;;;;;;4191174;34;20141;-64
2021/03/10 10:18:32;;;;;;;8.38;6.97;;;;;;;;;;4201752;34;20217;-64
2021/03/10 10:20:58;;;;;;;8.00;5.85;;;;;;;;;;4190216;34;20109;-64
2021/03/10 10:23:24;;;;;;;9.25;6.53;;;;;;;;;;4190287;34;20148;-63
2021/03/10 10:25:50;;;;;;;6.80;6.12;;;;;;;;;;4179032;34;20126;-65
2021/03/10 10:28:16;;;;;;;8.73;7.03;;;;;;;;;;4178826;34;20531;-63
2021/03/10 10:30:42;;;;;;;8.70;6.22;;;;;;;;;;4190123;34;20113;-69
2021/03/10 10:33:08;;;;;;;7.75;6.03;;;;;;;;;;4190192;34;20122;-73
2021/03/10 10:35:34;;;;;;;7.70;6.30;;;;;;;;;;4189959;34;20522;-72
2021/03/10 10:38:00;;;;;;;7.87;6.47;;;;;;;;;;4190112;34;20520;-73
2021/03/10 10:40:26;;;;;;;28.05;6.47;;;;;;;;;;4190043;34;20125;-69
2021/03/10 10:42:52;;;;;;;8.38;6.22;;;;;;;;;;4191395;34;20564;-66
2021/03/10 10:45:18;;;;;;;9.82;6.78;;;;;;;;;;4178667;34;20511;-66
2021/03/10 10:47:44;;;;;;;7.20;5.82;;;;;;;;;;4178746;34;20113;-67
2021/03/10 10:50:11;;;;;;;7.80;6.22;;;;;;;;;;4166924;34;20632;-61
2021/03/10 10:52:38;;;;;;;8.85;6.85;;;;;;;;;;4191335;34;20759;-61
2021/03/10 10:55:09;;;;;;;9.00;7.03;;;;;;;;;;4191108;34;20188;-59
2021/03/10 10:57:35;;;;;;;7.87;7.05;;;;;;;;;;4178594;34;20194;-60
2021/03/10 11:00:01;;;;;;;9.43;6.97;;;;;;;;;;4190975;34;20592;-60
2021/03/10 11:02:27;;;;;;;9.40;7.10;;;;;;;;;;4201528;34;20162;-62
2021/03/10 11:04:53;;;;;;;8.05;6.75;;;;;;;;;;4178120;34;20538;-62
2021/03/10 11:07:19;;;;;;;10.50;6.60;;;;;;;;;;4178322;34;20098;-62
2021/03/10 11:09:45;;;;;;;8.15;6.18;;;;;;;;;;4178533;34;20124;-63
2021/03/10 11:12:12;;;;;;;7.57;6.32;;;;;;;;;;4189790;34;20129;-61
2021/03/10 11:14:38;;;;;;;9.63;6.53;;;;;;;;;;4191215;34;20121;-63
2021/03/10 11:17:06;;;;;;;8.52;6.57;;;;;;;;;;4178354;34;20122;-63
2021/03/10 11:19:31;;;;;;;7.87;5.97;;;;;;;;;;4189606;34;20454;-63
2021/03/10 11:21:57;;;;;;;8.10;6.32;;;;;;;;;;4190951;34;20141;-63
2021/03/10 11:24:23;;;;;;;10.25;7.03;;;;;;;;;;4178473;34;20118;-62
2021/03/10 11:26:49;;;;;;;7.87;6.72;;;;;;;;;;4200289;34;20117;-63
2021/03/10 11:29:15;;;;;;;10.27;6.90;;;;;;;;;;4191011;34;20102;-63
2021/03/10 11:31:42;;;;;;;8.55;6.85;;;;;;;;;;4190923;34;20587;-63
2021/03/10 11:34:08;;;;;;;7.43;6.55;;;;;;;;;;4167128;34;20109;-62
2021/03/10 11:36:34;;;;;;;10.23;6.40;;;;;;;;;;4201041;34;20106;-63
2021/03/10 11:39:00;;;;;;;7.35;5.78;;;;;;;;;;4189534;34;20106;-62
2021/03/10 11:41:26;;;;;;;7.70;6.20;;;;;;;;;;4200976;34;20525;-63
2021/03/10 11:43:52;;;;;;;8.80;6.22;;;;;;;;;;4189668;34;20443;-63
2021/03/10 11:46:18;;;;;;;8.70;5.68;;;;;;;;;;4189552;34;20126;-62
2021/03/10 11:48:44;;;;;;;10.52;6.32;;;;;;;;;;4189537;34;20475;-62
2021/03/10 11:51:10;;;;;;;8.23;6.68;;;;;;;;;;4177921;34;20477;-61
2021/03/10 11:53:36;;;;;;;7.90;6.70;;;;;;;;;;4190807;34;20177;-62
2021/03/10 11:56:02;;;;;;;8.90;6.72;;;;;;;;;;4190651;34;20129;-62
2021/03/10 11:58:28;;;;;;;8.93;6.37;;;;;;;;;;4190602;34;20102;-61
2021/03/10 12:00:54;;;;;;;10.63;6.75;;;;;;;;;;4190539;34;20126;-60
2021/03/10 12:03:20;;;;;;;8.27;6.78;;;;;;;;;;4190662;34;20213;-61
2021/03/10 12:05:46;;;;;;;10.73;6.90;;;;;;;;;;4166299;34;20526;-61
2021/03/10 12:08:12;;;;;;;9.27;7.47;;;;;;;;;;4184447;34;20170;-61
2021/03/10 12:10:40;;;;;;;9.43;6.75;;;;;;;;;;4176966;34;20185;-61
2021/03/10 12:13:07;;;;;;;18.45;6.15;;;;;;;;;;4175204;34;20185;-61
2021/03/10 12:15:33;;;;;;;10.45;7.10;;;;;;;;;;4186770;34;20118;-61
2021/03/10 12:17:59;;;;;;;7.93;5.95;;;;;;;;;;4175677;34;20543;-61
2021/03/10 12:20:26;;;;;;;7.80;6.43;;;;;;;;;;4186758;34;20494;-61
2021/03/10 12:22:52;;;;;;;10.18;6.60;;;;;;;;;;4187009;34;20117;-61
2021/03/10 12:25:17;;;;;;;9.82;6.72;;;;;;;;;;4176712;34;20122;-61
2021/03/10 12:27:44;;;;;;;7.50;6.18;;;;;;;;;;4186778;34;20210;-61
2021/03/10 12:30:10;;;;;;;13.10;6.40;;;;;;;;;;4175405;34;20503;-61
2021/03/10 12:32:37;;;;;;;9.25;6.70;;;;;;;;;;4186925;34;20117;-61
2021/03/10 12:35:03;;;;;;;10.40;6.87;;;;;;;;;;4175174;34;20126;-61
2021/03/10 12:37:29;;;;;;;6.65;5.82;;;;;;;;;;4186744;34;20222;-62
2021/03/10 12:39:56;;;;;;;8.35;6.07;;;;;;;;;;4165512;34;20110;-61
2021/03/10 12:42:22;;;;;;;8.77;6.32;;;;;;;;;;4188934;34;20198;-61
2021/03/10 12:44:48;;;;;;;6.82;5.65;;;;;;;;;;4188529;34;20126;-61
2021/03/10 12:47:14;;;;;;;9.75;6.78;;;;;;;;;;4178579;34;20295;-62
2021/03/10 12:49:40;;;;;;;8.40;6.10;;;;;;;;;;4188653;34;20107;-62
2021/03/10 12:52:07;;;;;;;8.82;6.95;;;;;;;;;;4177444;34;20102;-63
2021/03/10 12:54:32;;;;;;;8.73;6.93;;;;;;;;;;4188523;34;20515;-63
2021/03/10 12:56:59;;;;;;;7.40;6.70;;;;;;;;;;4188802;34;20125;-63
2021/03/10 12:59:25;;;;;;;8.57;7.03;;;;;;;;;;4177056;34;20205;-62
2021/03/10 13:01:51;;;;;;;9.38;6.72;;;;;;;;;;4176997;34;20130;-63
2021/03/10 13:04:17;;;;;;;7.90;6.85;;;;;;;;;;4177137;34;20282;-63
2021/03/10 13:06:43;;;;;;;9.82;6.93;;;;;;;;;;4191013;34;20108;-63
2021/03/10 13:09:09;;;;;;;8.15;6.80;;;;;;;;;;4190639;34;20137;-63
2021/03/10 13:11:35;;;;;;;10.50;6.68;;;;;;;;;;4191963;34;20521;-63
2021/03/10 13:14:01;;;;;;;9.15;7.03;;;;;;;;;;4190650;34;20129;-63
2021/03/10 13:16:27;;;;;;;8.35;6.60;;;;;;;;;;4168130;34;20597;-64
2021/03/10 13:18:53;;;;;;;9.77;6.40;;;;;;;;;;4191987;34;20459;-63
2021/03/10 13:21:20;;;;;;;8.23;7.28;;;;;;;;;;4190718;34;20114;-64
2021/03/10 13:23:46;;;;;;;10.90;6.95;;;;;;;;;;4191912;34;20298;-64
2021/03/10 13:26:12;;;;;;;9.00;6.70;;;;;;;;;;4179102;34;20502;-65
2021/03/10 13:28:38;;;;;;;8.30;6.68;;;;;;;;;;4179211;34;20094;-65
2021/03/10 13:31:05;;;;;;;9.32;6.45;;;;;;;;;;4168120;34;20426;-67
2021/03/10 13:33:31;;;;;;;10.65;7.40;;;;;;;;;;4179374;34;20204;-69
2021/03/10 13:35:57;;;;;;;8.40;7.47;;;;;;;;;;4190548;34;20114;-69
2021/03/10 13:38:23;;;;;;;10.82;7.65;;;;;;;;;;4179340;34;20114;-64
2021/03/10 13:40:49;;;;;;;9.25;7.55;;;;;;;;;;4167932;34;20145;-68
2021/03/10 13:43:18;;;;;;;7.22;6.53;;;;;;;;;;4179236;34;20114;-68
2021/03/10 13:45:44;;;;;;;8.50;7.22;;;;;;;;;;4167656;34;20458;-67
2021/03/10 13:48:10;;;;;;;7.85;7.05;;;;;;;;;;4190663;34;20105;-66
2021/03/10 13:50:37;;;;;;;7.07;6.30;;;;;;;;;;4167115;34;20126;-67
2021/03/10 13:53:04;;;;;;;9.60;7.20;;;;;;;;;;4179019;34;20110;-69
2021/03/10 13:55:31;;;;;;;8.55;6.80;;;;;;;;;;4178946;34;20554;-71
2021/03/10 13:57:58;;;;;;;7.80;6.87;;;;;;;;;;4190460;34;20095;-70
2021/03/10 14:00:24;;;;;;;8.27;7.40;;;;;;;;;;4190557;34;20635;-64
2021/03/10 14:02:50;;;;;;;8.18;6.78;;;;;;;;;;4190476;34;20561;-68
2021/03/10 14:05:16;;;;;;;8.90;6.90;;;;;;;;;;4190266;34;20228;-70
2021/03/10 14:07:42;;;;;;;9.00;7.32;;;;;;;;;;4178771;34;20222;-70
2021/03/10 14:10:08;;;;;;;8.18;7.25;;;;;;;;;;4191551;34;20206;-69
2021/03/10 14:12:35;;;;;;;8.60;6.97;;;;;;;;;;4190292;34;20178;-66
2021/03/10 14:15:02;;;;;;;9.13;7.53;;;;;;;;;;4190132;34;20132;-68
2021/03/10 14:17:28;;;;;;;9.38;7.78;;;;;;;;;;4190100;34;20095;-66
2021/03/10 14:19:54;;;;;;;8.48;7.32;;;;;;;;;;4178704;34;20117;-67
2021/03/10 14:22:20;;;;;;;9.57;7.82;;;;;;;;;;4190135;34;20124;-67
2021/03/10 14:24:46;;;;;;;8.75;7.50;;;;;;;;;;4190197;34;20141;-65
2021/03/10 14:27:12;;;;;;;9.13;7.12;;;;;;;;;;4201675;34;20141;-65
2021/03/10 14:29:38;;;;;;;7.72;6.65;;;;;;;;;;4191370;34;20146;-64
2021/03/10 14:32:04;;;;;;;8.27;7.15;;;;;;;;;;4167675;34;20335;-66
2021/03/10 14:34:30;;;;;;;8.93;7.35;;;;;;;;;;4178734;34;20129;-64
2021/03/10 14:36:56;;;;;;;8.23;6.93;;;;;;;;;;4178589;34;20454;-65
2021/03/10 14:39:22;;;;;;;9.98;7.70;;;;;;;;;;4201498;34;20132;-64
2021/03/10 14:41:49;;;;;;;10.30;9.20;;;;;;;;;;4191282;34;20117;-65
2021/03/10 14:44:15;;;;;;;9.65;7.93;;;;;;;;;;4178714;34;20145;-65
2021/03/10 14:46:42;;;;;;;9.00;7.97;;;;;;;;;;4190166;34;20114;-64
2021/03/10 14:49:08;;;;;;;9.57;7.87;;;;;;;;;;4190042;34;20523;-64